Terminal Aerodrome Forecast
Issued by NWS Jackson, MS

Home | Current Version | Previous Version | Text Only | Print | Product List | Glossary On
Versions: 1 2 3 4 5 6 7 8 9 10 11 12 13
827
FTUS44 KJAN 062341
TAFHBG
TAF
KHBG 062341Z 0700/0724 36003KT P6SM FEW150 SCT250
     FM071500 29006KT P6SM SKC=

USA.gov is the U.S. government's official web portal to all federal, state and local government web resources and services.